createdAt,value
2022-09-12T00:00:03.784Z,1007.9
2022-09-12T00:01:04.846Z,1007.9
2022-09-12T00:02:03.869Z,1007.9
2022-09-12T00:03:03.760Z,1007.8
2022-09-12T00:04:03.774Z,1007.8
2022-09-12T00:05:03.791Z,1007.8
2022-09-12T00:06:03.760Z,1007.8
2022-09-12T00:07:03.757Z,1007.8
2022-09-12T00:08:03.794Z,1007.8
2022-09-12T00:09:03.770Z,1007.8
2022-09-12T00:10:03.772Z,1007.8
2022-09-12T00:11:03.776Z,1007.8
2022-09-12T00:12:03.767Z,1007.8
2022-09-12T00:13:03.762Z,1007.8
2022-09-12T00:14:03.797Z,1007.8
2022-09-12T00:15:03.766Z,1007.8
2022-09-12T00:16:03.767Z,1007.8
2022-09-12T00:17:03.824Z,1007.9
2022-09-12T00:18:03.790Z,1007.8
2022-09-12T00:19:03.771Z,1007.8
2022-09-12T00:20:03.805Z,1007.8
2022-09-12T00:21:03.776Z,1007.8
2022-09-12T00:22:03.762Z,1007.8
2022-09-12T00:23:03.768Z,1007.7
2022-09-12T00:24:03.773Z,1007.7
2022-09-12T00:25:03.774Z,1007.7
2022-09-12T00:26:03.793Z,1007.7
2022-09-12T00:27:03.787Z,1007.7
2022-09-12T00:28:03.763Z,1007.7
2022-09-12T00:29:03.771Z,1007.7
2022-09-12T00:30:03.767Z,1007.7
2022-09-12T00:31:03.772Z,1007.7
2022-09-12T00:32:03.790Z,1007.7
2022-09-12T00:33:03.780Z,1007.6
2022-09-12T00:34:03.763Z,1007.7
2022-09-12T00:35:03.781Z,1007.7
2022-09-12T00:36:03.763Z,1007.7
2022-09-12T00:37:03.800Z,1007.7
2022-09-12T00:38:03.809Z,1007.7
2022-09-12T00:39:03.768Z,1007.7
2022-09-12T00:40:03.815Z,1007.7
2022-09-12T00:41:03.778Z,1007.7
2022-09-12T00:43:53.995Z,1007.7
2022-09-12T00:44:03.941Z,1007.7
2022-09-12T00:45:03.677Z,1007.6
2022-09-12T00:46:03.772Z,1007.6
2022-09-12T00:47:03.677Z,1007.6
2022-09-12T00:48:03.732Z,1007.6
2022-09-12T00:49:03.894Z,1007.6
2022-09-12T00:50:03.676Z,1007.6
2022-09-12T00:51:03.679Z,1007.6
2022-09-12T00:52:03.690Z,1007.6
2022-09-12T00:53:03.737Z,1007.6
2022-09-12T00:54:03.687Z,1007.6
2022-09-12T00:55:03.719Z,1007.6
2022-09-12T00:56:03.682Z,1007.7
2022-09-12T00:57:03.687Z,1007.6
2022-09-12T00:58:03.696Z,1007.7
2022-09-12T00:59:03.698Z,1007.7
2022-09-12T01:00:03.687Z,1007.7
2022-09-12T01:01:03.854Z,1007.7
2022-09-12T01:02:03.743Z,1007.7
2022-09-12T01:03:03.688Z,1007.7
2022-09-12T01:04:03.696Z,1007.6
2022-09-12T01:05:03.704Z,1007.6
2022-09-12T01:06:03.691Z,1007.6
2022-09-12T01:07:03.710Z,1007.6
2022-09-12T01:08:03.723Z,1007.6
2022-09-12T01:09:03.684Z,1007.6
2022-09-12T01:10:03.909Z,1007.6
2022-09-12T01:11:03.678Z,1007.6
2022-09-12T01:12:03.712Z,1007.5
2022-09-12T01:13:03.696Z,1007.6
2022-09-12T01:14:03.687Z,1007.6
2022-09-12T01:15:03.685Z,1007.6
2022-09-12T01:16:03.739Z,1007.5
2022-09-12T01:17:03.683Z,1007.5
2022-09-12T01:18:03.691Z,1007.5
2022-09-12T01:19:03.694Z,1007.5
2022-09-12T01:20:03.718Z,1007.5
2022-09-12T01:21:03.683Z,1007.5
2022-09-12T01:22:03.686Z,1007.5
2022-09-12T01:23:03.684Z,1007.5
2022-09-12T01:24:03.700Z,1007.5
2022-09-12T01:25:03.727Z,1007.5
2022-09-12T01:26:03.727Z,1007.5
2022-09-12T01:27:03.686Z,1007.5
2022-09-12T01:28:03.707Z,1007.5
2022-09-12T01:29:03.711Z,1007.5
2022-09-12T01:30:03.704Z,1007.5
2022-09-12T01:31:03.692Z,1007.4
2022-09-12T01:32:03.755Z,1007.4
2022-09-12T01:33:03.692Z,1007.4
2022-09-12T01:34:03.696Z,1007.4
2022-09-12T01:35:03.705Z,1007.5
2022-09-12T01:36:03.718Z,1007.5
2022-09-12T01:37:03.689Z,1007.5
2022-09-12T01:38:03.733Z,1007.5
2022-09-12T01:39:03.700Z,1007.5
2022-09-12T01:40:03.736Z,1007.5
2022-09-12T01:41:03.703Z,1007.5
2022-09-12T01:42:03.698Z,1007.5
2022-09-12T01:43:03.695Z,1007.5
2022-09-12T01:44:03.739Z,1007.5
2022-09-12T01:45:03.706Z,1007.5
2022-09-12T01:46:03.741Z,1007.5
2022-09-12T01:47:03.702Z,1007.5
2022-09-12T01:48:03.716Z,1007.5
2022-09-12T01:49:03.701Z,1007.5
2022-09-12T01:50:03.754Z,1007.5
2022-09-12T01:52:53.908Z,1007.4
2022-09-12T01:53:04.612Z,1007.5
2022-09-12T01:54:04.621Z,1007.5
2022-09-12T01:55:08.990Z,1007.5
2022-09-12T01:56:04.646Z,1007.5
2022-09-12T01:57:04.620Z,1007.4
2022-09-12T01:58:04.619Z,1007.4
2022-09-12T01:59:04.613Z,1007.4
2022-09-12T02:00:04.626Z,1007.4
2022-09-12T02:01:04.676Z,1007.4
2022-09-12T02:02:04.638Z,1007.4
2022-09-12T02:03:04.625Z,1007.4
2022-09-12T02:04:04.623Z,1007.4
2022-09-12T02:05:04.624Z,1007.4
2022-09-12T02:06:04.622Z,1007.4
2022-09-12T02:07:04.644Z,1007.3
2022-09-12T02:08:04.611Z,1007.3
2022-09-12T02:09:04.604Z,1007.3
2022-09-12T02:10:04.618Z,1007.3
2022-09-12T02:11:04.605Z,1007.3
2022-09-12T02:12:04.615Z,1007.3
2022-09-12T02:13:04.632Z,1007.3
2022-09-12T02:14:04.620Z,1007.4
2022-09-12T02:15:04.628Z,1007.3
2022-09-12T02:16:04.652Z,1007.3
2022-09-12T02:17:04.608Z,1007.3
2022-09-12T02:18:04.614Z,1007.3
2022-09-12T02:19:04.653Z,1007.3
2022-09-12T02:20:04.854Z,1007.3
2022-09-12T02:21:04.612Z,1007.3
2022-09-12T02:22:04.609Z,1007.3
2022-09-12T02:23:04.611Z,1007.3
2022-09-12T02:24:04.616Z,1007.3
2022-09-12T02:25:04.829Z,1007.3
2022-09-12T02:26:04.615Z,1007.3
2022-09-12T02:27:04.616Z,1007.3
2022-09-12T02:28:04.614Z,1007.3
2022-09-12T02:29:04.617Z,1007.3
2022-09-12T02:30:11.347Z,1007.2
2022-09-12T02:31:04.121Z,1007.2
2022-09-12T02:32:04.710Z,1007.2
2022-09-12T02:33:04.056Z,1007.2
2022-09-12T02:34:04.041Z,1007.2
2022-09-12T02:35:04.055Z,1007.2
2022-09-12T02:36:04.086Z,1007.2
2022-09-12T02:37:04.063Z,1007.2
2022-09-12T02:38:04.060Z,1007.2
2022-09-12T02:39:04.060Z,1007.2
2022-09-12T02:40:04.096Z,1007.1
2022-09-12T02:41:04.053Z,1007.1
2022-09-12T02:42:04.106Z,1007.1
2022-09-12T02:43:04.128Z,1007.1
2022-09-12T02:44:04.053Z,1007.1
2022-09-12T02:45:04.312Z,1007.1
2022-09-12T02:46:04.089Z,1007.1
2022-09-12T02:47:04.118Z,1007.1
2022-09-12T02:48:04.090Z,1007.1
2022-09-12T02:49:04.065Z,1007.1
2022-09-12T02:50:04.111Z,1007.1
2022-09-12T02:51:04.069Z,1007.1
2022-09-12T02:52:04.054Z,1007.1
2022-09-12T02:53:04.073Z,1007.1
2022-09-12T02:54:04.069Z,1007.1
2022-09-12T02:55:04.057Z,1007.1
2022-09-12T02:56:04.090Z,1007.1
2022-09-12T02:57:04.056Z,1007.1
2022-09-12T02:58:04.055Z,1007.1
2022-09-12T02:59:04.068Z,1007.1
2022-09-12T03:00:04.060Z,1007.1
2022-09-12T03:01:04.137Z,1007.1
2022-09-12T03:02:04.130Z,1007.1
2022-09-12T03:03:04.064Z,1007.1
2022-09-12T03:04:04.062Z,1007.1
2022-09-12T03:05:04.092Z,1007.0
2022-09-12T03:06:04.182Z,1007.0
2022-09-12T03:07:04.061Z,1007.1
2022-09-12T03:08:04.084Z,1007.0
2022-09-12T03:09:04.065Z,1007.1
2022-09-12T03:10:04.056Z,1007.1
2022-09-12T03:11:04.089Z,1007.1
2022-09-12T03:12:04.057Z,1007.1
2022-09-12T03:13:04.071Z,1007.1
2022-09-12T03:14:04.094Z,1007.1
2022-09-12T03:15:04.070Z,1007.1
2022-09-12T03:16:04.087Z,1007.1
2022-09-12T03:17:04.071Z,1007.0
2022-09-12T03:18:04.067Z,1007.1
2022-09-12T03:19:04.068Z,1007.0
2022-09-12T03:20:04.128Z,1007.0
2022-09-12T03:21:04.063Z,1007.0
2022-09-12T03:22:04.056Z,1007.0
2022-09-12T03:24:56.052Z,1007.1
2022-09-12T03:25:04.695Z,1007.1
2022-09-12T03:26:03.983Z,1007.1
2022-09-12T03:27:03.951Z,1007.1
2022-09-12T03:28:03.961Z,1007.1
2022-09-12T03:29:03.953Z,1007.0
2022-09-12T03:30:04.942Z,1007.0
2022-09-12T03:31:03.991Z,1007.0
2022-09-12T03:32:03.986Z,1007.0
2022-09-12T03:33:03.964Z,1007.0
2022-09-12T03:34:03.967Z,1007.0
2022-09-12T03:35:03.951Z,1007.0
2022-09-12T03:36:03.953Z,1007.0
2022-09-12T03:37:03.970Z,1007.0
2022-09-12T03:38:03.991Z,1007.0
2022-09-12T03:39:03.961Z,1007.0
2022-09-12T03:40:04.031Z,1007.0
2022-09-12T03:41:05.006Z,1007.0
2022-09-12T03:42:03.971Z,1007.0
2022-09-12T03:43:03.958Z,1007.0
2022-09-12T03:44:03.970Z,1007.0
2022-09-12T03:45:03.957Z,1007.0
2022-09-12T03:46:04.031Z,1007.0
2022-09-12T03:47:06.923Z,1007.0
2022-09-12T03:48:03.963Z,1007.0
2022-09-12T03:49:03.966Z,1007.0
2022-09-12T03:50:03.977Z,1007.0
2022-09-12T03:51:03.961Z,1007.0
2022-09-12T03:52:03.997Z,1007.0
2022-09-12T03:53:04.050Z,1007.0
2022-09-12T03:54:03.962Z,1007.1
2022-09-12T03:55:03.974Z,1007.1
2022-09-12T03:56:03.968Z,1007.1
2022-09-12T03:57:03.962Z,1007.1
2022-09-12T03:58:04.922Z,1007.1
2022-09-12T03:59:04.002Z,1007.1
2022-09-12T04:00:04.002Z,1007.1
2022-09-12T04:01:04.015Z,1007.0
2022-09-12T04:02:04.011Z,1007.0
2022-09-12T04:03:03.962Z,1007.1
2022-09-12T04:04:03.973Z,1007.1
2022-09-12T04:05:03.973Z,1007.1
2022-09-12T04:06:04.002Z,1007.1
2022-09-12T04:07:03.967Z,1007.1
2022-09-12T04:08:03.965Z,1007.0
2022-09-12T04:09:03.962Z,1007.0
2022-09-12T04:10:04.125Z,1007.0
2022-09-12T04:11:03.975Z,1007.0
2022-09-12T04:12:03.993Z,1007.0
2022-09-12T04:13:03.957Z,1007.0
2022-09-12T04:14:03.970Z,1007.1
2022-09-12T04:15:03.992Z,1007.0
2022-09-12T04:16:03.981Z,1007.0
2022-09-12T04:17:03.958Z,1007.0
2022-09-12T04:18:06.081Z,1007.1
2022-09-12T04:19:03.985Z,1007.1
2022-09-12T04:20:03.976Z,1007.1
2022-09-12T04:21:03.984Z,1007.1
2022-09-12T04:22:03.962Z,1007.0
2022-09-12T04:23:03.962Z,1007.0
2022-09-12T04:24:04.004Z,1007.1
2022-09-12T04:25:03.975Z,1007.0
2022-09-12T04:26:03.986Z,1007.1
2022-09-12T04:27:07.710Z,1007.0
2022-09-12T04:28:03.980Z,1007.0
2022-09-12T04:29:03.969Z,1007.1
2022-09-12T04:30:04.004Z,1007.1
2022-09-12T04:31:04.037Z,1007.1
2022-09-12T04:32:03.974Z,1007.1
2022-09-12T04:33:07.929Z,1007.1
2022-09-12T04:34:03.973Z,1007.1
2022-09-12T04:35:03.999Z,1007.1
2022-09-12T04:36:04.188Z,1007.1
2022-09-12T04:37:03.974Z,1007.1
2022-09-12T04:38:03.968Z,1007.1
2022-09-12T04:39:03.974Z,1007.1
2022-09-12T04:40:04.023Z,1007.1
2022-09-12T04:41:03.981Z,1007.1
2022-09-12T04:42:04.116Z,1007.1
2022-09-12T04:43:03.972Z,1007.1
2022-09-12T04:44:03.978Z,1007.1
2022-09-12T04:45:03.978Z,1007.1
2022-09-12T04:46:04.003Z,1007.1
2022-09-12T04:47:03.983Z,1007.1
2022-09-12T04:48:04.013Z,1007.1
2022-09-12T04:49:03.974Z,1007.1
2022-09-12T04:50:03.975Z,1007.1
2022-09-12T04:51:03.979Z,1007.1
2022-09-12T04:52:03.988Z,1007.1
2022-09-12T04:53:04.038Z,1007.0
2022-09-12T04:54:04.042Z,1007.0
2022-09-12T04:55:03.980Z,1007.1
2022-09-12T04:56:03.987Z,1007.0
2022-09-12T04:57:03.978Z,1007.1
2022-09-12T04:58:03.992Z,1007.0
2022-09-12T04:59:03.971Z,1007.1
2022-09-12T05:00:07.072Z,1007.1
2022-09-12T05:01:04.035Z,1007.0
2022-09-12T05:02:04.014Z,1007.0
2022-09-12T05:03:03.989Z,1007.0
2022-09-12T05:04:05.024Z,1007.0
2022-09-12T05:05:03.972Z,1007.0
2022-09-12T05:06:04.016Z,1007.0
2022-09-12T05:07:03.984Z,1007.0
2022-09-12T05:08:03.989Z,1007.0
2022-09-12T05:09:03.986Z,1007.0
2022-09-12T05:10:03.989Z,1007.0
2022-09-12T05:11:03.991Z,1007.0
2022-09-12T05:12:05.366Z,1007.0
2022-09-12T05:13:03.990Z,1007.0
2022-09-12T05:14:03.995Z,1007.0
2022-09-12T05:15:03.986Z,1006.9
2022-09-12T05:16:04.019Z,1007.0
2022-09-12T05:17:04.069Z,1007.0
2022-09-12T05:18:04.028Z,1007.0
2022-09-12T05:19:03.997Z,1007.0
2022-09-12T05:20:03.991Z,1007.0
2022-09-12T05:21:03.982Z,1007.0
2022-09-12T05:22:03.997Z,1007.0
2022-09-12T05:23:03.987Z,1007.0
2022-09-12T05:24:04.064Z,1007.0
2022-09-12T05:25:03.997Z,1007.0
2022-09-12T05:26:03.984Z,1007.0
2022-09-12T05:27:03.991Z,1007.0
2022-09-12T05:28:04.019Z,1007.0
2022-09-12T05:29:04.007Z,1007.0
2022-09-12T05:30:04.019Z,1007.0
2022-09-12T05:31:04.023Z,1007.0
2022-09-12T05:32:04.000Z,1007.0
2022-09-12T05:33:04.029Z,1007.0
2022-09-12T05:34:05.039Z,1007.0
2022-09-12T05:35:03.990Z,1007.0
2022-09-12T05:36:04.217Z,1007.1
2022-09-12T05:37:04.599Z,1007.0
2022-09-12T05:38:04.014Z,1007.0
2022-09-12T05:39:03.992Z,1007.0
2022-09-12T05:40:04.036Z,1007.1
2022-09-12T05:41:03.986Z,1007.0
2022-09-12T05:42:04.040Z,1007.0
2022-09-12T05:43:04.000Z,1007.0
2022-09-12T05:44:04.031Z,1007.0
2022-09-12T05:45:04.004Z,1007.0
2022-09-12T05:46:04.014Z,1007.0
2022-09-12T05:47:03.992Z,1007.0
2022-09-12T05:48:04.040Z,1007.0
2022-09-12T05:49:04.020Z,1007.0
2022-09-12T05:50:04.006Z,1007.1
2022-09-12T05:51:03.998Z,1007.1
2022-09-12T05:52:04.018Z,1007.1
2022-09-12T05:53:03.991Z,1007.1
2022-09-12T05:54:04.030Z,1007.1
2022-09-12T05:55:03.992Z,1007.1
2022-09-12T05:56:04.006Z,1007.1
2022-09-12T05:57:03.998Z,1007.2
2022-09-12T05:58:04.008Z,1007.2
2022-09-12T05:59:54.885Z,1007.2
2022-09-12T06:00:04.041Z,1007.2
2022-09-12T06:01:04.139Z,1007.1
2022-09-12T06:02:04.110Z,1007.1
2022-09-12T06:03:03.997Z,1007.1
2022-09-12T06:04:04.020Z,1007.1
2022-09-12T06:05:04.006Z,1007.1
2022-09-12T06:06:04.030Z,1007.1
2022-09-12T06:07:04.014Z,1007.1
2022-09-12T06:08:03.998Z,1007.1
2022-09-12T06:09:04.018Z,1007.1
2022-09-12T06:10:04.037Z,1007.1
2022-09-12T06:11:04.007Z,1007.1
2022-09-12T06:12:04.007Z,1007.1
2022-09-12T06:13:04.950Z,1007.1
2022-09-12T06:14:04.016Z,1007.1
2022-09-12T06:15:03.997Z,1007.1
2022-09-12T06:16:04.062Z,1007.1
2022-09-12T06:17:04.025Z,1007.1
2022-09-12T06:18:03.999Z,1007.1
2022-09-12T06:19:04.002Z,1007.1
2022-09-12T06:20:04.021Z,1007.1
2022-09-12T06:21:04.006Z,1007.1
2022-09-12T06:22:04.034Z,1007.1
2022-09-12T06:23:03.998Z,1007.1
2022-09-12T06:24:04.002Z,1007.1
2022-09-12T06:25:04.034Z,1007.1
2022-09-12T06:26:04.011Z,1007.1
2022-09-12T06:27:04.005Z,1007.0
2022-09-12T06:28:04.042Z,1007.0
2022-09-12T06:29:03.998Z,1007.0
2022-09-12T06:30:04.031Z,1007.0
2022-09-12T06:31:04.073Z,1007.0
2022-09-12T06:32:04.014Z,1007.0
2022-09-12T06:33:04.024Z,1007.0
2022-09-12T06:34:04.040Z,1007.0
2022-09-12T06:35:04.006Z,1007.0
2022-09-12T06:36:04.012Z,1007.0
2022-09-12T06:37:04.015Z,1007.0
2022-09-12T06:38:04.013Z,1007.0
2022-09-12T06:39:04.002Z,1007.0
2022-09-12T06:40:04.127Z,1007.0
2022-09-12T06:41:04.035Z,1007.0
2022-09-12T06:42:04.011Z,1007.0
2022-09-12T06:43:04.017Z,1007.0
2022-09-12T06:44:04.029Z,1007.0
2022-09-12T06:45:04.012Z,1006.9
2022-09-12T06:46:04.101Z,1006.9
2022-09-12T06:47:04.026Z,1006.9
2022-09-12T06:48:04.024Z,1006.9
2022-09-12T06:49:04.014Z,1007.0
2022-09-12T06:50:04.012Z,1007.0
2022-09-12T06:51:04.009Z,1007.0
2022-09-12T06:52:04.057Z,1007.0
2022-09-12T06:53:04.014Z,1007.0
2022-09-12T06:54:04.013Z,1007.0
2022-09-12T06:55:04.018Z,1007.0
2022-09-12T06:56:04.027Z,1007.1
2022-09-12T06:57:04.018Z,1007.1
2022-09-12T06:58:04.058Z,1007.1
2022-09-12T06:59:04.007Z,1007.1
2022-09-12T07:00:04.014Z,1007.1
2022-09-12T07:01:04.054Z,1007.2
2022-09-12T07:02:04.070Z,1007.2
2022-09-12T07:03:04.019Z,1007.2
2022-09-12T07:04:04.040Z,1007.2
2022-09-12T07:05:04.009Z,1007.2
2022-09-12T07:06:04.020Z,1007.2
2022-09-12T07:07:04.024Z,1007.2
2022-09-12T07:08:04.024Z,1007.2
2022-09-12T07:09:04.019Z,1007.2
2022-09-12T07:10:04.047Z,1007.2
2022-09-12T07:11:04.013Z,1007.2
2022-09-12T07:12:04.044Z,1007.2
2022-09-12T07:13:04.017Z,1007.2
2022-09-12T07:14:04.037Z,1007.2
2022-09-12T07:15:04.043Z,1007.2
2022-09-12T07:16:04.082Z,1007.2
2022-09-12T07:17:04.037Z,1007.2
2022-09-12T07:18:04.035Z,1007.2
2022-09-12T07:19:04.032Z,1007.2
2022-09-12T07:20:04.022Z,1007.2
2022-09-12T07:21:04.014Z,1007.2
2022-09-12T07:22:04.058Z,1007.1
2022-09-12T07:23:04.028Z,1007.1
2022-09-12T07:24:04.032Z,1007.1
2022-09-12T07:25:04.031Z,1007.1
2022-09-12T07:26:04.034Z,1007.1
2022-09-12T07:27:04.017Z,1007.1
2022-09-12T07:28:04.060Z,1007.1
2022-09-12T07:29:25.505Z,1007.1
2022-09-12T07:30:04.036Z,1007.1
2022-09-12T07:31:04.112Z,1007.2
2022-09-12T07:32:04.026Z,1007.1
2022-09-12T07:33:04.028Z,1007.1
2022-09-12T07:34:04.061Z,1007.1
2022-09-12T07:35:04.030Z,1007.1
2022-09-12T07:36:04.026Z,1007.1
2022-09-12T07:37:04.030Z,1007.1
2022-09-12T07:38:04.026Z,1007.1
2022-09-12T07:39:04.034Z,1007.1
2022-09-12T07:40:04.087Z,1007.2
2022-09-12T07:41:04.028Z,1007.2
2022-09-12T07:42:04.032Z,1007.2
2022-09-12T07:43:04.029Z,1007.2
2022-09-12T07:44:04.951Z,1007.1
2022-09-12T07:45:04.040Z,1007.2
2022-09-12T07:46:04.188Z,1007.2
2022-09-12T07:47:04.734Z,1007.2
2022-09-12T07:48:04.029Z,1007.2
2022-09-12T07:49:04.035Z,1007.2
2022-09-12T07:50:04.040Z,1007.1
2022-09-12T07:51:04.055Z,1007.2
2022-09-12T07:52:04.058Z,1007.1
2022-09-12T07:53:04.030Z,1007.1
2022-09-12T07:54:04.033Z,1007.1
2022-09-12T07:55:04.038Z,1007.1
2022-09-12T07:56:04.041Z,1007.1
2022-09-12T07:57:04.040Z,1007.1
2022-09-12T07:58:04.072Z,1007.1
2022-09-12T07:59:04.035Z,1007.1
2022-09-12T08:00:04.035Z,1007.1
2022-09-12T08:01:04.083Z,1007.1
2022-09-12T08:02:04.125Z,1007.1
2022-09-12T08:03:04.031Z,1007.1
2022-09-12T08:04:04.059Z,1007.1
2022-09-12T08:05:04.039Z,1007.1
2022-09-12T08:06:04.059Z,1007.1
2022-09-12T08:07:04.052Z,1007.1
2022-09-12T08:08:04.028Z,1007.1
2022-09-12T08:09:04.035Z,1007.1
2022-09-12T08:10:04.067Z,1007.1
2022-09-12T08:11:04.036Z,1007.0
2022-09-12T08:12:04.056Z,1007.1
2022-09-12T08:13:04.044Z,1007.1
2022-09-12T08:14:04.033Z,1007.1
2022-09-12T08:15:04.042Z,1007.1
2022-09-12T08:16:04.121Z,1007.0
2022-09-12T08:17:04.042Z,1007.0
2022-09-12T08:18:04.033Z,1007.0
2022-09-12T08:19:04.071Z,1007.1
2022-09-12T08:20:04.038Z,1007.0
2022-09-12T08:21:04.044Z,1007.0
2022-09-12T08:22:04.053Z,1007.0
2022-09-12T08:23:04.053Z,1007.0
2022-09-12T08:24:04.073Z,1007.0
2022-09-12T08:25:04.160Z,1007.0
2022-09-12T08:26:06.088Z,1007.0
2022-09-12T08:27:04.051Z,1007.0
2022-09-12T08:28:04.045Z,1007.0
2022-09-12T08:29:04.048Z,1007.0
2022-09-12T08:30:04.070Z,1007.0
2022-09-12T08:31:04.117Z,1007.0
2022-09-12T08:32:04.038Z,1007.0
2022-09-12T08:33:04.046Z,1007.0
2022-09-12T08:34:04.038Z,1007.0
2022-09-12T08:35:04.045Z,1007.0
2022-09-12T08:36:04.157Z,1007.0
2022-09-12T08:37:04.046Z,1007.0
2022-09-12T08:38:04.039Z,1007.0
2022-09-12T08:39:04.049Z,1007.0
2022-09-12T08:40:04.069Z,1007.0
2022-09-12T08:41:04.047Z,1007.0
2022-09-12T08:42:04.170Z,1007.0
2022-09-12T08:43:04.053Z,1007.0
2022-09-12T08:44:04.063Z,1007.0
2022-09-12T08:45:04.052Z,1007.0
2022-09-12T08:46:04.077Z,1007.0
2022-09-12T08:47:04.055Z,1007.1
2022-09-12T08:48:04.088Z,1007.1
2022-09-12T08:49:04.042Z,1007.1
2022-09-12T08:50:04.043Z,1007.1
2022-09-12T08:51:04.051Z,1007.0
2022-09-12T08:52:04.058Z,1007.0
2022-09-12T08:53:04.066Z,1007.0
2022-09-12T08:54:04.173Z,1007.1
2022-09-12T08:55:04.051Z,1007.0
2022-09-12T08:56:04.043Z,1007.0
2022-09-12T08:57:04.057Z,1007.1
2022-09-12T08:58:04.081Z,1007.0
2022-09-12T08:59:04.064Z,1007.0
2022-09-12T09:00:04.075Z,1007.1
2022-09-12T09:01:04.148Z,1007.0
2022-09-12T09:02:04.120Z,1007.0
2022-09-12T09:03:04.052Z,1007.0
2022-09-12T09:04:04.057Z,1007.0
2022-09-12T09:05:04.045Z,1007.0
2022-09-12T09:06:04.073Z,1007.0
2022-09-12T09:07:04.058Z,1007.0
2022-09-12T09:08:04.049Z,1007.0
2022-09-12T09:09:04.066Z,1007.0
2022-09-12T09:10:04.080Z,1007.0
2022-09-12T09:11:04.055Z,1007.0
2022-09-12T09:12:04.051Z,1007.0
2022-09-12T09:13:04.061Z,1007.0
2022-09-12T09:14:05.410Z,1006.9
2022-09-12T09:15:04.057Z,1006.9
2022-09-12T09:16:04.093Z,1006.9
2022-09-12T09:17:04.052Z,1006.9
2022-09-12T09:18:04.048Z,1006.9
2022-09-12T09:19:04.059Z,1007.0
2022-09-12T09:20:04.198Z,1007.0
2022-09-12T09:21:04.065Z,1006.9
2022-09-12T09:22:04.052Z,1007.0
2022-09-12T09:23:04.059Z,1007.0
2022-09-12T09:24:04.056Z,1007.0
2022-09-12T09:25:04.066Z,1007.0
2022-09-12T09:26:04.081Z,1007.0
2022-09-12T09:27:11.094Z,1007.0
2022-09-12T09:28:04.051Z,1007.0
2022-09-12T09:29:04.061Z,1007.0
2022-09-12T09:30:04.053Z,1007.0
2022-09-12T09:31:04.102Z,1007.0
2022-09-12T09:32:04.212Z,1007.0
2022-09-12T09:33:04.062Z,1007.0
2022-09-12T09:34:04.057Z,1007.0
2022-09-12T09:35:04.068Z,1007.0
2022-09-12T09:36:04.081Z,1007.0
2022-09-12T09:37:04.087Z,1007.0
2022-09-12T09:38:04.090Z,1007.0
2022-09-12T09:39:04.061Z,1007.0
2022-09-12T09:40:04.125Z,1006.9
2022-09-12T09:41:04.096Z,1006.9
2022-09-12T09:42:04.055Z,1006.9
2022-09-12T09:43:04.073Z,1006.9
2022-09-12T09:44:04.307Z,1006.9
2022-09-12T09:45:04.070Z,1006.9
2022-09-12T09:46:04.168Z,1006.9
2022-09-12T09:47:04.075Z,1006.9
2022-09-12T09:48:04.074Z,1006.9
2022-09-12T09:49:07.015Z,1006.9
2022-09-12T09:50:04.104Z,1006.9
2022-09-12T09:51:04.082Z,1006.9
2022-09-12T09:52:04.057Z,1006.9
2022-09-12T09:53:04.076Z,1006.9
2022-09-12T09:54:04.061Z,1006.9
2022-09-12T09:55:04.076Z,1006.9
2022-09-12T09:56:04.102Z,1006.9
2022-09-12T09:57:04.066Z,1006.9
2022-09-12T09:58:04.053Z,1006.9
2022-09-12T09:59:04.069Z,1006.9
2022-09-12T10:00:04.064Z,1006.9
2022-09-12T10:01:04.091Z,1006.9
2022-09-12T10:02:04.170Z,1006.9
2022-09-12T10:03:04.074Z,1006.9
2022-09-12T10:04:04.068Z,1006.9
2022-09-12T10:05:04.084Z,1006.9
2022-09-12T10:06:04.073Z,1006.9
2022-09-12T10:07:04.095Z,1006.9
2022-09-12T10:08:04.092Z,1006.9
2022-09-12T10:09:04.136Z,1006.9
2022-09-12T10:10:04.072Z,1006.8
2022-09-12T10:11:04.081Z,1006.8
2022-09-12T10:12:04.075Z,1006.8
2022-09-12T10:13:04.089Z,1006.8
2022-09-12T10:14:04.110Z,1006.8
2022-09-12T10:15:04.069Z,1006.8
2022-09-12T10:16:04.099Z,1006.8
2022-09-12T10:17:04.076Z,1006.8
2022-09-12T10:18:04.078Z,1006.8
2022-09-12T10:19:04.083Z,1006.8
2022-09-12T10:20:20.301Z,1006.8
2022-09-12T10:21:04.074Z,1006.8
2022-09-12T10:22:04.103Z,1006.8
2022-09-12T10:23:04.084Z,1006.7
2022-09-12T10:24:04.066Z,1006.7
2022-09-12T10:25:04.078Z,1006.7
2022-09-12T10:26:04.101Z,1006.7
2022-09-12T10:27:04.077Z,1006.7
2022-09-12T10:28:04.070Z,1006.7
2022-09-12T10:29:04.144Z,1006.7
2022-09-12T10:30:04.309Z,1006.7
2022-09-12T10:31:04.119Z,1006.7
2022-09-12T10:32:04.112Z,1006.7
2022-09-12T10:33:04.076Z,1006.7
2022-09-12T10:34:04.074Z,1006.6
2022-09-12T10:35:04.086Z,1006.6
2022-09-12T10:37:54.290Z,1006.6
2022-09-12T10:38:04.693Z,1006.6
2022-09-12T10:39:03.970Z,1006.6
2022-09-12T10:40:04.055Z,1006.6
2022-09-12T10:41:03.977Z,1006.6
2022-09-12T10:42:03.974Z,1006.6
2022-09-12T10:43:03.997Z,1006.5
2022-09-12T10:44:03.975Z,1006.5
2022-09-12T10:45:03.971Z,1006.5
2022-09-12T10:46:04.029Z,1006.5
2022-09-12T10:47:03.983Z,1006.5
2022-09-12T10:48:07.554Z,1006.5
2022-09-12T10:49:04.008Z,1006.5
2022-09-12T10:50:04.001Z,1006.4
2022-09-12T10:51:03.974Z,1006.4
2022-09-12T10:52:03.971Z,1006.4
2022-09-12T10:53:03.977Z,1006.4
2022-09-12T10:54:03.972Z,1006.4
2022-09-12T10:55:04.000Z,1006.4
2022-09-12T10:56:04.003Z,1006.4
2022-09-12T10:57:03.976Z,1006.4
2022-09-12T10:58:03.985Z,1006.3
2022-09-12T10:59:04.095Z,1006.4
2022-09-12T11:00:03.967Z,1006.4
2022-09-12T11:01:04.143Z,1006.3
2022-09-12T11:02:04.216Z,1006.3
2022-09-12T11:03:04.093Z,1006.3
2022-09-12T11:04:04.106Z,1006.3
2022-09-12T11:05:04.082Z,1006.3
2022-09-12T11:06:04.095Z,1006.3
2022-09-12T11:07:10.971Z,1006.3
2022-09-12T11:08:11.314Z,1006.3
2022-09-12T11:09:04.024Z,1006.2
2022-09-12T11:10:04.042Z,1006.2
2022-09-12T11:11:04.040Z,1006.2
2022-09-12T11:12:04.068Z,1006.2
2022-09-12T11:13:04.092Z,1006.2
2022-09-12T11:14:04.042Z,1006.2
2022-09-12T11:15:04.026Z,1006.2
2022-09-12T11:16:04.096Z,1006.2
2022-09-12T11:17:04.060Z,1006.2
2022-09-12T11:18:04.001Z,1006.2
2022-09-12T11:19:04.042Z,1006.2
2022-09-12T11:20:04.026Z,1006.2
2022-09-12T11:21:03.972Z,1006.2
2022-09-12T11:22:04.011Z,1006.2
2022-09-12T11:23:04.372Z,1006.2
2022-09-12T11:24:04.049Z,1006.2
2022-09-12T11:25:04.027Z,1006.2
2022-09-12T11:26:04.077Z,1006.1
2022-09-12T11:27:04.027Z,1006.2
2022-09-12T11:28:04.025Z,1006.1
2022-09-12T11:29:04.055Z,1006.1
2022-09-12T11:30:04.093Z,1006.2
2022-09-12T11:31:04.084Z,1006.1
2022-09-12T11:32:04.012Z,1006.1
2022-09-12T11:33:04.038Z,1006.1
2022-09-12T11:34:04.028Z,1006.2
2022-09-12T11:35:04.912Z,1006.1
2022-09-12T11:36:04.134Z,1006.1
2022-09-12T11:37:07.447Z,1006.1
2022-09-12T11:38:04.038Z,1006.0
2022-09-12T11:39:04.048Z,1006.0
2022-09-12T11:40:04.077Z,1006.0
2022-09-12T11:41:04.015Z,1006.0
2022-09-12T11:42:04.101Z,1005.9
2022-09-12T11:43:04.166Z,1006.0
2022-09-12T11:44:04.034Z,1006.0
2022-09-12T11:45:04.072Z,1005.9
2022-09-12T11:46:04.142Z,1005.9
2022-09-12T11:47:04.066Z,1006.0
2022-09-12T11:48:04.110Z,1005.9
2022-09-12T11:49:04.025Z,1005.9
2022-09-12T11:50:04.141Z,1005.9
2022-09-12T11:51:04.030Z,1005.9
2022-09-12T11:52:04.049Z,1005.8
2022-09-12T11:53:04.050Z,1005.8
2022-09-12T11:54:04.136Z,1005.8
2022-09-12T11:55:04.073Z,1005.8
2022-09-12T11:56:04.047Z,1005.8
2022-09-12T11:57:03.934Z,1005.8
2022-09-12T11:58:03.982Z,1005.8
2022-09-12T11:59:03.950Z,1005.8
2022-09-12T12:00:03.960Z,1005.9
2022-09-12T12:01:03.938Z,1005.8
2022-09-12T12:02:04.025Z,1005.8
2022-09-12T12:03:03.931Z,1005.8
2022-09-12T12:04:03.939Z,1005.8
2022-09-12T12:05:03.935Z,1005.8
2022-09-12T12:06:04.208Z,1005.8
2022-09-12T12:07:03.939Z,1005.8
2022-09-12T12:08:03.929Z,1005.8
2022-09-12T12:09:03.958Z,1005.8
2022-09-12T12:10:03.958Z,1005.7
2022-09-12T12:11:03.937Z,1005.7
2022-09-12T12:12:03.942Z,1005.7
2022-09-12T12:13:03.938Z,1005.7
2022-09-12T12:14:03.946Z,1005.7
2022-09-12T12:15:03.947Z,1005.7
2022-09-12T12:16:04.113Z,1005.7
2022-09-12T12:17:03.944Z,1005.7
2022-09-12T12:18:03.946Z,1005.7
2022-09-12T12:19:06.497Z,1005.7
2022-09-12T12:20:06.399Z,1005.6
2022-09-12T12:21:03.953Z,1005.6
2022-09-12T12:22:03.996Z,1005.6
2022-09-12T12:23:04.023Z,1005.6
2022-09-12T12:24:03.961Z,1005.6
2022-09-12T12:25:04.025Z,1005.6
2022-09-12T12:26:03.960Z,1005.6
2022-09-12T12:28:42.797Z,1005.6
2022-09-12T12:29:05.487Z,1005.6
2022-09-12T12:30:04.529Z,1005.6
2022-09-12T12:31:04.583Z,1005.6
2022-09-12T12:32:04.555Z,1005.5
2022-09-12T12:33:04.494Z,1005.5